Time;durP1;ratioP1;P1;durP2;ratioP2;P2;SDS_P1;SDS_P2;PMS_P1;PMS_P2;Temp;Humidity;BMP_temperature;BMP_pressure;BME280_temperature;BME280_humidity;BME280_pressure;Samples;Min_cycle;Max_cycle;Signal;HPM_P1;HPM_P2
2023/05/24 00:00:27;;;;;;;6.97;3.33;;;;;;;10.84;65.38;99303.16;6195390;23;20012;-81
2023/05/24 00:02:53;;;;;;;15.10;4.65;;;;;;;10.59;66.01;99341.91;6219874;23;20012;-81
2023/05/24 00:05:18;;;;;;;14.57;4.80;;;;;;;10.25;65.55;99336.41;6222665;23;20004;-81
2023/05/24 00:07:44;;;;;;;16.05;4.22;;;;;;;10.73;65.96;99328.06;6221503;23;20012;-81
2023/05/24 00:10:10;;;;;;;9.05;3.10;;;;;;;10.90;65.21;99336.13;6224858;23;20008;-81
2023/05/24 00:12:35;;;;;;;17.10;4.05;;;;;;;10.98;65.17;99330.41;6251781;23;20034;-81
2023/05/24 00:15:00;;;;;;;14.45;3.35;;;;;;;10.90;65.01;99342.25;6196336;23;20008;-81
2023/05/24 00:17:28;;;;;;;11.07;3.85;;;;;;;10.25;66.52;99325.75;6198830;23;20030;-81
2023/05/24 00:19:54;;;;;;;12.60;3.70;;;;;;;10.87;65.16;99342.75;6173387;23;20016;-81
2023/05/24 00:22:20;;;;;;;9.45;3.75;;;;;;;10.82;65.44;99331.97;6196304;23;20105;-81
2023/05/24 00:24:47;;;;;;;18.00;5.50;;;;;;;10.84;65.15;99323.72;6194016;23;20007;-81
2023/05/24 00:27:14;;;;;;;11.32;3.88;;;;;;;10.97;64.40;99342.94;6221040;23;20054;-81
2023/05/24 00:29:40;;;;;;;10.82;3.33;;;;;;;10.95;64.65;99336.22;6223339;23;20008;-81
2023/05/24 00:32:05;;;;;;;6.50;3.20;;;;;;;10.89;64.24;99326.50;6173269;23;20046;-80
2023/05/24 00:34:30;;;;;;;16.77;3.88;;;;;;;10.80;64.56;99323.41;6221626;23;20000;-81
2023/05/24 00:36:56;;;;;;;9.25;3.25;;;;;;;10.89;64.79;99345.19;6196884;23;20008;-81
2023/05/24 00:39:22;;;;;;;9.93;3.30;;;;;;;10.86;64.44;99325.09;6222537;23;20060;-81
2023/05/24 00:41:47;;;;;;;9.77;3.30;;;;;;;10.82;64.43;99328.47;6172041;23;20030;-80
2023/05/24 00:44:13;;;;;;;16.63;4.57;;;;;;;10.74;65.05;99326.19;6194212;23;20012;-81
2023/05/24 00:46:38;;;;;;;16.67;4.35;;;;;;;10.82;65.21;99344.50;6218618;23;20424;-81
2023/05/24 00:49:04;;;;;;;14.35;3.90;;;;;;;10.74;64.41;99339.56;6245471;22;20008;-81
2023/05/24 00:51:31;;;;;;;18.40;5.68;;;;;;;10.84;64.59;99345.06;6220701;23;20008;-81
2023/05/24 00:53:56;;;;;;;15.20;3.67;;;;;;;10.57;65.05;99334.16;6219512;23;20049;-82
2023/05/24 00:56:22;;;;;;;15.02;5.50;;;;;;;10.48;65.17;99328.34;6245649;22;20079;-81
2023/05/24 00:58:49;;;;;;;20.88;3.78;;;;;;;10.67;65.06;99325.53;6195754;23;20019;-81
2023/05/24 01:01:15;;;;;;;14.52;3.75;;;;;;;10.80;64.90;99327.91;6223628;23;20325;-81
2023/05/24 01:03:40;;;;;;;12.02;4.50;;;;;;;10.93;64.40;99324.97;6192865;23;20004;-81
2023/05/24 01:06:06;;;;;;;8.70;3.15;;;;;;;10.92;64.39;99340.16;6193312;23;20060;-81
2023/05/24 01:08:34;;;;;;;12.48;4.55;;;;;;;10.66;64.53;99346.06;6247150;22;20218;-81
2023/05/24 01:11:33;;;;;;;14.18;4.25;;;;;;;10.75;64.19;99314.47;6247170;23;20015;-80
2023/05/24 01:14:32;;;;;;;15.13;3.97;;;;;;;10.80;64.53;99325.25;6246387;23;20421;-81
2023/05/24 01:16:58;;;;;;;19.15;5.03;;;;;;;10.69;64.43;99332.25;6185446;23;20011;-81
2023/05/24 01:19:47;;;;;;;10.30;3.83;;;;;;;10.58;65.29;99338.44;6246933;23;20031;-81
2023/05/24 01:22:31;;;;;;;16.40;4.18;;;;;;;10.57;64.83;99330.66;6219749;23;20012;-81
2023/05/24 01:25:13;;;;;;;10.55;3.65;;;;;;;10.61;64.65;99321.13;6247055;23;20036;-80
2023/05/24 01:27:39;;;;;;;11.90;4.93;;;;;;;10.45;64.55;99312.81;6248112;23;19996;-81
2023/05/24 01:30:06;;;;;;;11.23;5.30;;;;;;;10.49;65.08;99307.81;6222225;23;20444;-81
2023/05/24 01:32:32;;;;;;;13.73;3.92;;;;;;;10.40;64.47;99312.72;6222398;23;20129;-81
2023/05/24 01:34:57;;;;;;;18.40;4.13;;;;;;;10.39;65.29;99319.13;6247305;22;20441;-80
2023/05/24 01:37:22;;;;;;;12.40;3.60;;;;;;;10.26;65.19;99286.53;6222000;23;20000;-81
2023/05/24 01:39:48;;;;;;;12.52;3.80;;;;;;;10.35;65.26;99319.81;6195787;23;20055;-80
2023/05/24 01:42:26;;;;;;;12.98;3.67;;;;;;;10.41;64.69;99321.53;6221664;23;20006;-80
2023/05/24 01:44:59;;;;;;;18.27;4.70;;;;;;;10.19;65.77;99316.00;6220826;23;20048;-80
2023/05/24 01:47:34;;;;;;;12.38;4.55;;;;;;;10.19;65.87;99318.69;6220129;23;20012;-81
2023/05/24 01:50:16;;;;;;;12.00;3.78;;;;;;;10.08;65.20;99287.47;6221974;23;20057;-80
2023/05/24 01:52:44;;;;;;;8.52;3.30;;;;;;;10.12;65.12;99293.97;6222641;23;19996;-80
2023/05/24 01:55:16;;;;;;;13.15;3.95;;;;;;;10.18;65.41;99316.22;6198042;23;20494;-80
2023/05/24 01:57:44;;;;;;;14.57;3.67;;;;;;;10.23;65.94;99319.00;6249741;23;20075;-80
2023/05/24 02:00:13;;;;;;;10.00;3.33;;;;;;;10.02;65.85;99300.94;6249104;23;20058;-80
2023/05/24 02:02:38;;;;;;;12.43;3.97;;;;;;;9.96;65.65;99276.00;6250862;23;20011;-81
2023/05/24 02:05:04;;;;;;;14.98;4.25;;;;;;;10.09;65.70;99307.75;6224207;23;20020;-80
2023/05/24 02:07:29;;;;;;;25.23;5.80;;;;;;;9.34;66.93;99301.47;6251565;22;20463;-80
2023/05/24 02:09:55;;;;;;;19.00;4.35;;;;;;;9.54;67.59;99306.50;6225125;23;20415;-81
2023/05/24 02:12:20;;;;;;;13.80;3.85;;;;;;;9.86;66.82;99305.09;6201483;23;20027;-81
2023/05/24 02:14:49;;;;;;;9.82;4.13;;;;;;;9.60;66.70;99297.56;6199969;23;20348;-81
2023/05/24 02:17:16;;;;;;;18.35;4.68;;;;;;;9.70;66.28;99284.47;6201432;23;20014;-81
2023/05/24 02:19:42;;;;;;;13.00;3.47;;;;;;;9.92;65.83;99282.84;6200457;23;20091;-81
2023/05/24 02:22:07;;;;;;;13.35;5.35;;;;;;;9.38;66.84;99302.66;6202563;23;20012;-80
2023/05/24 02:24:33;;;;;;;16.73;3.88;;;;;;;9.30;68.06;99291.50;6228318;23;20008;-81
2023/05/24 02:26:58;;;;;;;16.27;3.90;;;;;;;9.36;67.29;99288.75;6203860;23;20079;-80
2023/05/24 02:29:24;;;;;;;15.43;4.93;;;;;;;9.43;67.00;99281.47;6256501;23;20004;-80
2023/05/24 02:31:55;;;;;;;16.27;4.25;;;;;;;9.43;67.11;99296.63;6226192;23;20004;-81
2023/05/24 02:34:22;;;;;;;14.02;5.18;;;;;;;9.77;66.94;99303.81;6176328;23;20462;-80
2023/05/24 02:36:47;;;;;;;20.60;5.10;;;;;;;9.56;66.83;99296.41;6199033;23;20027;-81
2023/05/24 02:39:12;;;;;;;20.83;4.78;;;;;;;9.26;67.19;99275.16;6199015;23;20488;-80
2023/05/24 02:41:38;;;;;;;20.63;5.10;;;;;;;9.51;67.36;99301.59;6175632;23;20063;-80
2023/05/24 02:44:03;;;;;;;12.75;4.18;;;;;;;9.64;66.70;99277.41;6225755;23;20023;-81
2023/05/24 02:46:29;;;;;;;11.90;4.32;;;;;;;9.74;66.29;99283.78;6225673;23;20008;-81
2023/05/24 02:48:54;;;;;;;26.83;4.90;;;;;;;9.86;66.21;99288.28;6201141;23;20012;-81
2023/05/24 02:51:19;;;;;;;15.73;4.75;;;;;;;9.89;66.05;99293.97;6200584;23;20040;-81
2023/05/24 02:53:45;;;;;;;16.05;4.32;;;;;;;9.79;66.52;99299.06;6201487;23;20012;-81
2023/05/24 02:56:12;;;;;;;23.42;5.30;;;;;;;9.64;66.81;99280.06;6251543;23;20043;-81
2023/05/24 02:58:39;;;;;;;14.60;4.05;;;;;;;9.69;66.18;99286.34;6224712;23;20280;-80
2023/05/24 03:01:06;;;;;;;13.52;4.05;;;;;;;9.80;66.64;99293.53;6201158;23;20023;-80
2023/05/24 03:03:31;;;;;;;16.25;3.90;;;;;;;9.74;66.74;99286.44;6226260;23;20433;-80
2023/05/24 03:05:57;;;;;;;13.07;4.03;;;;;;;9.85;66.82;99305.34;6253361;22;20042;-80
2023/05/24 03:08:22;;;;;;;14.32;4.65;;;;;;;9.81;67.20;99291.66;6253630;23;20018;-80
2023/05/24 03:10:47;;;;;;;16.45;5.10;;;;;;;9.80;66.99;99290.03;6200483;23;20016;-80
2023/05/24 03:13:13;;;;;;;14.88;4.72;;;;;;;9.77;66.28;99288.66;6226960;23;20046;-80
2023/05/24 03:15:38;;;;;;;15.00;4.50;;;;;;;9.78;66.44;99289.47;6199129;23;20387;-80
2023/05/24 03:18:04;;;;;;;12.13;4.47;;;;;;;9.91;66.75;99294.56;6202264;23;20008;-80
2023/05/24 03:20:29;;;;;;;24.52;5.25;;;;;;;9.88;67.16;99299.53;6227407;23;20058;-80
2023/05/24 03:22:55;;;;;;;16.17;4.57;;;;;;;9.72;66.50;99285.84;6227682;23;20014;-81
2023/05/24 03:25:20;;;;;;;12.00;4.00;;;;;;;9.78;67.19;99287.59;6199592;23;20455;-81
2023/05/24 03:27:46;;;;;;;15.55;4.45;;;;;;;9.86;66.90;99291.78;6199901;23;20491;-80
2023/05/24 03:30:11;;;;;;;12.43;4.25;;;;;;;9.68;67.22;99270.56;6199092;23;20016;-80
2023/05/24 03:32:37;;;;;;;15.60;4.63;;;;;;;9.89;66.97;99290.50;6200425;23;20030;-80
2023/05/24 03:35:02;;;;;;;19.00;6.45;;;;;;;9.91;67.27;99291.91;6252538;23;20060;-80
2023/05/24 03:37:28;;;;;;;15.65;4.95;;;;;;;9.85;67.18;99297.34;6226298;23;20015;-80
2023/05/24 03:39:53;;;;;;;20.02;4.65;;;;;;;9.92;66.65;99306.00;6226837;23;20026;-80
2023/05/24 03:42:19;;;;;;;22.90;4.63;;;;;;;9.58;67.57;99312.97;6224163;22;20004;-81
2023/05/24 03:44:45;;;;;;;10.18;3.60;;;;;;;9.75;67.40;99282.75;6222562;23;20004;-81
2023/05/24 03:47:11;;;;;;;21.42;4.70;;;;;;;9.85;67.19;99295.47;6218052;23;20032;-81
2023/05/24 03:49:36;;;;;;;12.68;4.20;;;;;;;9.93;66.51;99297.81;6192918;23;20110;-81
2023/05/24 03:52:02;;;;;;;15.32;5.82;;;;;;;9.75;66.94;99282.75;6245187;23;20008;-81
2023/05/24 03:54:27;;;;;;;10.35;4.57;;;;;;;9.81;67.36;99307.66;6217982;23;20428;-81
2023/05/24 03:56:53;;;;;;;16.00;4.57;;;;;;;9.78;67.75;99297.47;6243504;23;20024;-80
2023/05/24 03:59:18;;;;;;;15.70;4.30;;;;;;;9.94;66.85;99322.63;6193326;23;20008;-81
2023/05/24 04:01:44;;;;;;;16.45;4.97;;;;;;;9.87;67.76;99325.41;6192467;23;20036;-80
2023/05/24 04:04:10;;;;;;;13.60;4.75;;;;;;;9.81;67.82;99324.47;6220808;23;20008;-81
2023/05/24 04:06:36;;;;;;;16.88;5.13;;;;;;;9.52;68.06;99314.69;6249744;22;20008;-80
2023/05/24 04:09:04;;;;;;;14.40;4.65;;;;;;;9.79;68.62;99331.06;6219410;23;20043;-80
2023/05/24 04:11:31;;;;;;;14.73;5.28;;;;;;;9.92;67.88;99317.50;6193764;23;20518;-80
2023/05/24 04:13:59;;;;;;;20.15;5.10;;;;;;;9.88;67.45;99324.34;6218553;23;20480;-81
2023/05/24 04:16:25;;;;;;;13.57;4.72;;;;;;;9.89;67.75;99322.50;6216970;23;20004;-81
2023/05/24 04:18:51;;;;;;;18.27;4.45;;;;;;;9.77;68.26;99319.81;6219955;23;20008;-81
2023/05/24 04:21:16;;;;;;;21.73;5.63;;;;;;;9.82;68.25;99314.63;6246836;23;20416;-80
2023/05/24 04:23:42;;;;;;;14.93;4.28;;;;;;;9.98;67.53;99326.44;6217880;23;20011;-80
2023/05/24 04:26:09;;;;;;;23.15;4.82;;;;;;;9.85;68.49;99319.47;6216222;23;20018;-81
2023/05/24 04:28:34;;;;;;;19.25;5.75;;;;;;;9.72;68.77;99325.03;6245115;23;20011;-81
2023/05/24 04:31:00;;;;;;;18.05;4.50;;;;;;;9.73;68.57;99318.66;6244546;23;20090;-81
2023/05/24 04:33:26;;;;;;;14.93;4.35;;;;;;;9.92;68.38;99317.50;6218920;23;20040;-81
2023/05/24 04:35:52;;;;;;;24.50;5.13;;;;;;;9.88;68.28;99316.34;6193689;23;20012;-80
2023/05/24 04:38:18;;;;;;;27.55;5.72;;;;;;;9.75;68.92;99296.06;6220942;23;20314;-80
2023/05/24 04:40:44;;;;;;;17.73;4.80;;;;;;;10.01;67.96;99323.28;6247081;23;20008;-81
2023/05/24 04:43:10;;;;;;;11.60;4.78;;;;;;;9.94;68.79;99320.75;6194183;23;20474;-80
2023/05/24 04:45:36;;;;;;;24.83;6.68;;;;;;;10.01;68.28;99329.44;6197129;23;20099;-81
2023/05/24 04:48:01;;;;;;;14.10;5.35;;;;;;;9.84;68.98;99304.53;6251547;22;20008;-80
2023/05/24 04:50:27;;;;;;;18.95;5.03;;;;;;;9.93;68.32;99307.66;6174244;23;20012;-80
2023/05/24 04:52:53;;;;;;;18.30;6.05;;;;;;;9.99;68.20;99309.38;6196533;23;20012;-80
2023/05/24 04:55:18;;;;;;;29.80;6.20;;;;;;;9.85;68.95;99308.81;6250164;23;20004;-80
2023/05/24 04:57:44;;;;;;;20.70;5.88;;;;;;;9.87;68.85;99313.91;6251179;23;20031;-80
2023/05/24 05:00:10;;;;;;;24.90;6.70;;;;;;;9.92;68.75;99308.69;6192498;23;20015;-80
2023/05/24 05:02:35;;;;;;;26.95;8.35;;;;;;;9.48;70.33;99307.41;6212216;23;20012;-80
2023/05/24 05:05:01;;;;;;;25.25;6.85;;;;;;;10.08;68.46;99327.47;6189254;23;20459;-81
2023/05/24 05:07:26;;;;;;;29.48;6.68;;;;;;;9.65;70.04;99309.16;6212990;23;20011;-80
2023/05/24 05:09:51;;;;;;;17.70;5.10;;;;;;;10.13;68.99;99306.28;6215600;23;20027;-80
2023/05/24 05:12:17;;;;;;;19.05;6.07;;;;;;;9.74;70.27;99322.97;6214644;23;20448;-81
2023/05/24 05:14:42;;;;;;;20.65;6.35;;;;;;;9.99;69.19;99312.88;6189681;23;20016;-80
2023/05/24 05:17:08;;;;;;;19.67;5.60;;;;;;;10.13;68.86;99327.63;6214454;23;20004;-81
2023/05/24 05:19:33;;;;;;;22.30;6.10;;;;;;;10.04;68.80;99331.66;6241181;23;20388;-80
2023/05/24 05:21:58;;;;;;;21.40;7.18;;;;;;;9.63;70.76;99329.09;6213816;23;20009;-80
2023/05/24 05:24:24;;;;;;;26.58;7.57;;;;;;;9.43;71.45;99333.94;6215316;23;20008;-81
2023/05/24 05:26:49;;;;;;;19.17;6.60;;;;;;;10.04;69.64;99345.00;6187302;23;20302;-80
2023/05/24 05:29:15;;;;;;;21.55;6.95;;;;;;;9.32;71.71;99330.19;6216882;23;20443;-80
2023/05/24 05:31:40;;;;;;;29.95;8.07;;;;;;;9.62;71.30;99340.78;6241429;23;20015;-80
2023/05/24 05:34:09;;;;;;;25.70;7.30;;;;;;;8.88;73.66;99343.94;6212599;23;20030;-80
2023/05/24 05:36:39;;;;;;;25.75;9.05;;;;;;;8.97;73.96;99356.72;6183578;23;20015;-81
2023/05/24 05:39:08;;;;;;;29.85;7.95;;;;;;;9.27;74.27;99361.22;6204537;23;20009;-80
2023/05/24 05:41:42;;;;;;;22.02;7.05;;;;;;;9.48;73.05;99366.81;6205458;23;20490;-80
2023/05/24 05:44:08;;;;;;;29.90;6.93;;;;;;;10.25;69.96;99356.94;6182121;23;20684;-81
2023/05/24 05:46:34;;;;;;;24.17;6.63;;;;;;;9.94;70.74;99371.41;6181993;23;20022;-80
2023/05/24 05:48:59;;;;;;;19.42;6.72;;;;;;;9.33;72.57;99363.78;6208771;23;20012;-80
2023/05/24 05:51:25;;;;;;;22.85;7.18;;;;;;;10.08;70.68;99377.31;6182941;23;20016;-81
2023/05/24 05:53:51;;;;;;;38.40;8.82;;;;;;;9.64;72.15;99350.19;6207345;23;20078;-80
2023/05/24 05:56:16;;;;;;;24.67;8.05;;;;;;;10.12;71.04;99360.66;6207775;23;20004;-80
2023/05/24 05:58:42;;;;;;;30.70;8.65;;;;;;;10.36;70.62;99364.94;6206121;23;20424;-81
2023/05/24 06:01:07;;;;;;;22.08;6.82;;;;;;;10.59;69.69;99373.94;6234886;23;20015;-81
2023/05/24 06:03:32;;;;;;;30.88;7.10;;;;;;;10.82;68.20;99371.22;6207996;23;20402;-80
2023/05/24 06:05:58;;;;;;;23.35;6.63;;;;;;;11.14;67.10;99370.50;6185434;23;20620;-80
2023/05/24 06:08:23;;;;;;;23.75;6.85;;;;;;;10.72;68.36;99344.31;6235972;23;20008;-80
2023/05/24 06:10:48;;;;;;;27.23;8.55;;;;;;;10.47;69.74;99350.75;6209569;23;20016;-81
2023/05/24 06:13:14;;;;;;;27.92;6.15;;;;;;;10.71;68.61;99338.16;6159597;23;20008;-80
2023/05/24 06:15:39;;;;;;;17.95;6.07;;;;;;;10.81;69.14;99365.06;6208867;23;20004;-80
2023/05/24 06:18:05;;;;;;;31.65;7.63;;;;;;;10.76;68.62;99374.84;6182945;23;20428;-81
2023/05/24 06:20:31;;;;;;;24.15;6.32;;;;;;;10.62;69.05;99354.78;6237186;23;20011;-80
2023/05/24 06:22:56;;;;;;;16.15;6.22;;;;;;;10.77;68.95;99365.78;6205788;23;20344;-80
2023/05/24 06:25:23;;;;;;;34.42;8.77;;;;;;;10.36;69.98;99343.59;6181377;23;20094;-81
2023/05/24 06:27:50;;;;;;;31.40;7.22;;;;;;;10.67;69.57;99374.41;6205435;23;20012;-80
2023/05/24 06:30:16;;;;;;;19.17;6.63;;;;;;;10.87;69.03;99358.78;6235088;23;20004;-80
2023/05/24 06:32:41;;;;;;;25.38;6.28;;;;;;;10.98;68.00;99365.94;6207531;23;20010;-81
2023/05/24 06:35:07;;;;;;;26.83;8.82;;;;;;;11.16;68.11;99372.97;6182589;23;20012;-81
2023/05/24 06:37:33;;;;;;;23.50;7.28;;;;;;;11.46;67.09;99384.19;6180850;23;20008;-81
2023/05/24 06:39:58;;;;;;;27.55;8.35;;;;;;;11.22;68.21;99383.50;6182473;23;20031;-80
2023/05/24 06:42:23;;;;;;;27.30;7.05;;;;;;;11.14;68.33;99383.03;6235493;22;20008;-80
2023/05/24 06:44:49;;;;;;;26.45;8.35;;;;;;;11.18;67.66;99392.22;6207409;23;20441;-80
2023/05/24 06:47:14;;;;;;;21.80;7.28;;;;;;;11.17;67.37;99385.25;6234079;23;20012;-80
2023/05/24 06:49:40;;;;;;;21.90;6.93;;;;;;;11.13;67.12;99389.47;6158526;23;20043;-80
2023/05/24 06:52:07;;;;;;;37.97;8.57;;;;;;;11.39;67.46;99386.19;6184943;23;20004;-80
2023/05/24 06:54:32;;;;;;;30.65;8.27;;;;;;;11.20;66.52;99363.41;6235627;23;20448;-81
2023/05/24 06:56:58;;;;;;;22.38;7.72;;;;;;;11.19;67.72;99385.81;6236764;23;20007;-80
2023/05/24 06:59:23;;;;;;;25.48;7.30;;;;;;;11.26;67.38;99381.97;6209766;23;20008;-80
2023/05/24 07:01:52;;;;;;;24.88;6.68;;;;;;;11.38;66.61;99362.41;6186756;23;20027;-80
2023/05/24 07:04:18;;;;;;;31.23;9.65;;;;;;;11.32;66.91;99378.34;6160629;23;20016;-80
2023/05/24 07:06:44;;;;;;;28.58;7.78;;;;;;;11.61;66.49;99388.97;6207685;23;20424;-80
2023/05/24 07:09:10;;;;;;;30.42;9.43;;;;;;;11.62;65.73;99375.38;6208422;23;20114;-81
2023/05/24 07:11:35;;;;;;;25.13;7.30;;;;;;;11.37;66.80;99372.28;6208311;23;20032;-80
2023/05/24 07:14:01;;;;;;;33.08;7.63;;;;;;;11.63;66.19;99370.84;6158137;23;20861;-80
2023/05/24 07:16:26;;;;;;;35.03;7.65;;;;;;;11.46;66.52;99381.53;6156440;23;20004;-80
2023/05/24 07:18:51;;;;;;;20.20;7.53;;;;;;;11.32;66.32;99393.53;6207990;23;20012;-80
2023/05/24 07:21:17;;;;;;;25.55;7.45;;;;;;;11.73;65.62;99389.78;6233029;23;20083;-80
2023/05/24 07:23:42;;;;;;;28.05;7.82;;;;;;;11.63;65.74;99387.69;6180124;23;20008;-80
2023/05/24 07:26:11;;;;;;;23.15;8.25;;;;;;;11.61;66.02;99394.31;6232584;23;20328;-80
2023/05/24 07:28:39;;;;;;;23.05;7.45;;;;;;;11.61;66.35;99384.44;6232922;22;20370;-81
2023/05/24 07:31:04;;;;;;;31.33;7.43;;;;;;;11.61;65.74;99373.75;6182194;23;20401;-80
2023/05/24 07:33:30;;;;;;;29.15;8.00;;;;;;;11.66;65.32;99383.72;6180512;23;20011;-80
2023/05/24 07:35:55;;;;;;;19.85;7.10;;;;;;;11.07;65.97;99399.22;6234491;23;20754;-80
2023/05/24 07:38:21;;;;;;;24.73;7.82;;;;;;;11.80;65.22;99385.88;6207624;23;20673;-80
2023/05/24 07:40:46;;;;;;;32.22;9.88;;;;;;;11.68;65.71;99376.31;6206552;23;20015;-81
2023/05/24 07:43:12;;;;;;;22.00;7.57;;;;;;;11.42;65.80;99396.41;6205524;23;20012;-80
2023/05/24 07:45:37;;;;;;;27.08;7.82;;;;;;;10.58;67.23;99405.16;6183716;23;20016;-80
2023/05/24 07:48:02;;;;;;;22.13;7.15;;;;;;;10.97;67.89;99384.84;6203106;23;20027;-80
2023/05/24 07:50:28;;;;;;;26.60;7.43;;;;;;;11.47;65.80;99384.97;6181474;23;20005;-81
2023/05/24 07:52:55;;;;;;;20.55;6.65;;;;;;;11.67;65.91;99404.91;6205886;23;20086;-81
2023/05/24 07:55:21;;;;;;;25.25;6.95;;;;;;;11.67;64.91;99380.84;6209876;23;20008;-81
2023/05/24 07:57:46;;;;;;;20.15;6.55;;;;;;;11.82;65.08;99398.97;6155807;23;20091;-81
2023/05/24 08:00:15;;;;;;;20.17;7.10;;;;;;;11.68;65.07;99403.03;6185016;23;20019;-80
2023/05/24 08:02:41;;;;;;;23.02;7.32;;;;;;;11.82;64.23;99386.44;6210980;23;20004;-80
2023/05/24 08:05:08;;;;;;;19.80;6.90;;;;;;;11.88;64.82;99401.50;6181372;23;20043;-81
2023/05/24 08:07:34;;;;;;;28.52;8.00;;;;;;;11.76;65.05;99387.41;6183528;23;20012;-81
2023/05/24 08:10:00;;;;;;;17.77;7.25;;;;;;;11.88;65.30;99388.13;6211304;23;20709;-81
2023/05/24 08:12:29;;;;;;;22.58;7.45;;;;;;;12.14;63.54;99383.19;6185088;23;20015;-81
2023/05/24 08:14:54;;;;;;;20.40;6.03;;;;;;;12.02;62.93;99367.22;6206713;23;20043;-81
2023/05/24 08:17:20;;;;;;;20.10;6.57;;;;;;;11.69;64.28;99394.78;6207526;23;20008;-81
2023/05/24 08:19:45;;;;;;;21.77;7.15;;;;;;;12.32;62.41;99386.38;6207417;23;20090;-81
2023/05/24 08:22:11;;;;;;;25.85;7.43;;;;;;;11.50;61.62;99369.28;6208485;23;20008;-81
2023/05/24 08:24:37;;;;;;;20.00;6.78;;;;;;;11.88;63.45;99374.75;6183876;23;20008;-81
2023/05/24 08:27:03;;;;;;;22.35;6.53;;;;;;;11.90;62.16;99372.63;6209527;23;20012;-81
2023/05/24 08:29:28;;;;;;;26.40;6.57;;;;;;;11.85;62.37;99377.13;6208271;23;20022;-81
2023/05/24 08:31:54;;;;;;;15.82;5.90;;;;;;;12.13;61.79;99382.38;6207487;23;20008;-81
2023/05/24 08:34:19;;;;;;;21.02;7.00;;;;;;;11.85;63.15;99377.13;6236330;23;20065;-80
2023/05/24 08:36:44;;;;;;;20.75;6.72;;;;;;;12.12;63.05;99377.28;6206277;23;20008;-80
2023/05/24 08:39:10;;;;;;;22.00;6.00;;;;;;;12.32;62.00;99366.84;6205872;23;20187;-80
2023/05/24 08:41:38;;;;;;;18.73;6.25;;;;;;;12.38;62.73;99381.94;6208882;23;20027;-80
2023/05/24 08:44:07;;;;;;;24.63;6.70;;;;;;;12.41;62.65;99389.44;6159785;23;20073;-80
2023/05/24 08:46:34;;;;;;;26.20;8.00;;;;;;;12.45;62.32;99398.63;6235303;22;20012;-80
2023/05/24 08:49:06;;;;;;;16.77;5.90;;;;;;;12.57;62.34;99399.31;6237195;22;20050;-80
2023/05/24 08:51:32;;;;;;;22.95;6.43;;;;;;;12.77;62.44;99399.59;6236455;23;20012;-80
2023/05/24 08:53:58;;;;;;;19.52;5.90;;;;;;;13.00;62.42;99395.81;6209684;23;20012;-80
2023/05/24 08:56:25;;;;;;;29.95;7.85;;;;;;;13.22;60.15;99393.97;6207194;23;20046;-80
2023/05/24 08:58:52;;;;;;;21.52;6.22;;;;;;;12.26;62.26;99384.69;6208869;23;20095;-80
2023/05/24 09:01:18;;;;;;;22.40;7.13;;;;;;;12.46;60.84;99386.84;6240706;23;20058;-80
2023/05/24 09:03:46;;;;;;;19.30;5.82;;;;;;;13.06;61.53;99394.88;6211112;23;20012;-80
2023/05/24 09:06:16;;;;;;;30.58;6.13;;;;;;;13.20;60.67;99396.91;6210566;23;20014;-80
2023/05/24 09:08:42;;;;;;;32.55;7.28;;;;;;;13.17;59.71;99394.72;6240714;23;20004;-80
2023/05/24 09:11:07;;;;;;;25.55;6.40;;;;;;;13.15;60.80;99404.88;6215462;23;20015;-80
2023/05/24 09:13:34;;;;;;;19.60;5.88;;;;;;;12.30;61.23;99401.88;6210443;23;20012;-80
2023/05/24 09:16:00;;;;;;;20.00;7.90;;;;;;;12.67;61.49;99375.34;6211473;23;20015;-80
2023/05/24 09:18:26;;;;;;;20.63;5.82;;;;;;;12.15;58.73;99380.25;6241415;23;20090;-80
2023/05/24 09:20:51;;;;;;;17.80;6.22;;;;;;;12.54;62.56;99387.22;6188475;23;20008;-80
2023/05/24 09:23:17;;;;;;;17.75;5.03;;;;;;;13.41;60.04;99398.72;6188832;23;20008;-80
2023/05/24 09:25:47;;;;;;;14.73;5.20;;;;;;;12.97;59.95;99397.16;6186440;23;20391;-80
2023/05/24 09:28:15;;;;;;;21.52;7.20;;;;;;;12.27;59.71;99405.06;6241379;22;20004;-80
2023/05/24 09:30:44;;;;;;;28.75;5.95;;;;;;;12.30;61.16;99406.41;6238904;22;20138;-80
2023/05/24 09:33:11;;;;;;;29.05;7.40;;;;;;;12.75;61.30;99402.50;6239304;23;20063;-80
2023/05/24 09:35:40;;;;;;;24.38;6.70;;;;;;;12.75;60.53;99402.50;6237004;23;20077;-80
2023/05/24 09:38:17;;;;;;;16.83;5.60;;;;;;;13.44;60.05;99406.28;6210987;23;20004;-80
2023/05/24 09:40:42;;;;;;;;;;;;;;;13.38;59.86;99406.47;6178674;23;20444;-80
2023/05/24 09:43:09;;;;;;;20.43;6.23;;;;;;;13.47;59.58;99389.69;6224513;22;19921;-80
2023/05/24 09:45:41;;;;;;;19.33;6.95;;;;;;;13.57;59.62;99393.50;6175749;23;20019;-80
2023/05/24 09:48:10;;;;;;;21.50;7.32;;;;;;;13.67;59.51;99396.31;6193635;23;20022;-80
2023/05/24 09:50:35;;;;;;;17.10;6.25;;;;;;;13.66;59.59;99397.34;6201089;23;20012;-80
2023/05/24 09:53:02;;;;;;;21.73;6.50;;;;;;;13.71;59.26;99397.41;6199068;23;20403;-80
2023/05/24 09:55:28;;;;;;;25.05;6.68;;;;;;;13.16;59.61;99355.59;6202362;23;20035;-80
2023/05/24 09:58:05;;;;;;;18.15;5.05;;;;;;;13.62;59.30;99397.06;6229463;22;20016;-80
2023/05/24 10:00:38;;;;;;;20.70;6.35;;;;;;;13.77;58.61;99381.09;6199689;23;20016;-80
2023/05/24 10:03:09;;;;;;;25.60;6.30;;;;;;;13.76;58.54;99374.09;6210691;23;20012;-80
2023/05/24 10:05:36;;;;;;;15.77;4.90;;;;;;;13.94;57.98;99376.41;6213440;23;20008;-80
2023/05/24 10:08:03;;;;;;;17.33;5.28;;;;;;;14.12;56.58;99378.69;6169887;23;20012;-80
2023/05/24 10:10:31;;;;;;;22.27;6.30;;;;;;;13.94;56.87;99383.63;6220524;23;20004;-80
2023/05/24 10:12:58;;;;;;;17.92;5.80;;;;;;;14.22;56.24;99392.16;6195979;23;20012;-80
2023/05/24 10:15:25;;;;;;;17.70;5.15;;;;;;;14.10;58.30;99372.78;6223356;23;20014;-80
2023/05/24 10:17:51;;;;;;;10.88;4.43;;;;;;;14.18;57.18;99371.47;6174444;23;20015;-80
2023/05/24 10:20:17;;;;;;;17.08;5.80;;;;;;;13.63;56.89;99387.94;6223681;23;20004;-80
2023/05/24 10:22:46;;;;;;;16.20;4.85;;;;;;;13.56;58.53;99389.22;6232584;22;20623;-80
2023/05/24 10:25:33;;;;;;;20.50;5.53;;;;;;;12.98;57.95;99381.88;6212693;23;20341;-80
2023/05/24 10:28:10;;;;;;;18.85;5.30;;;;;;;12.99;57.43;99389.69;6209810;23;20111;-80
2023/05/24 10:30:40;;;;;;;19.33;5.45;;;;;;;13.17;57.38;99381.31;6209103;23;20012;-80
2023/05/24 10:33:07;;;;;;;18.27;6.07;;;;;;;13.11;59.26;99376.16;6207980;23;20032;-80
2023/05/24 10:35:36;;;;;;;16.50;5.93;;;;;;;13.03;58.10;99376.56;6234278;22;20027;-81
2023/05/24 10:38:06;;;;;;;19.27;5.50;;;;;;;13.79;56.90;99368.22;6216878;23;20007;-80
2023/05/24 10:40:32;;;;;;;11.25;4.50;;;;;;;14.01;56.49;99362.75;6219092;23;20022;-80
2023/05/24 10:42:58;;;;;;;12.43;4.28;;;;;;;13.55;51.78;99358.91;6192109;23;20054;-80
2023/05/24 10:45:23;;;;;;;14.60;4.95;;;;;;;13.62;52.29;99394.38;6242871;23;20004;-80
2023/05/24 10:47:49;;;;;;;10.32;4.28;;;;;;;13.54;53.90;99390.28;6211982;23;20099;-80
2023/05/24 10:50:21;;;;;;;16.63;6.07;;;;;;;12.90;55.33;99376.97;6238494;22;20019;-80
2023/05/24 10:52:50;;;;;;;13.57;4.68;;;;;;;12.45;56.43;99393.28;6211448;23;20214;-80
2023/05/24 10:55:18;;;;;;;18.17;5.25;;;;;;;12.43;58.09;99380.13;6185119;23;20001;-80
2023/05/24 10:57:43;;;;;;;13.38;5.13;;;;;;;12.36;59.06;99406.25;6211772;23;20344;-80
2023/05/24 11:00:24;;;;;;;19.70;4.22;;;;;;;12.45;58.03;99398.63;6212671;23;20015;-80
2023/05/24 11:03:07;;;;;;;17.25;4.95;;;;;;;12.44;59.71;99391.63;6239241;22;20008;-80
2023/05/24 11:05:50;;;;;;;16.27;4.97;;;;;;;12.57;58.85;99393.97;6237069;23;20008;-80
2023/05/24 11:08:35;;;;;;;19.95;5.43;;;;;;;12.76;60.37;99400.63;6210815;23;20023;-80
2023/05/24 11:11:11;;;;;;;17.30;4.38;;;;;;;12.55;60.63;99378.16;6210209;23;20854;-80
2023/05/24 11:13:40;;;;;;;14.20;5.20;;;;;;;12.39;58.82;99380.84;6205438;23;20004;-80
2023/05/24 11:16:05;;;;;;;28.25;5.63;;;;;;;12.92;59.59;99378.34;6205613;23;20762;-80
2023/05/24 11:18:31;;;;;;;15.77;4.25;;;;;;;13.50;58.83;99383.81;6211421;23;20000;-80
2023/05/24 11:21:00;;;;;;;9.85;4.07;;;;;;;14.15;57.66;99386.22;6210771;23;20020;-80
2023/05/24 11:23:25;;;;;;;16.38;4.97;;;;;;;15.03;55.86;99382.66;6186481;23;20523;-80
2023/05/24 11:25:51;;;;;;;19.08;4.22;;;;;;;14.70;51.75;99387.66;6209658;23;20015;-80
2023/05/24 11:28:17;;;;;;;9.77;4.13;;;;;;;15.52;54.41;99363.44;6210539;23;20008;-81